Terminal Aerodrome Forecast
Issued by NWS Wilmington, NC

Home | Current Version | Previous Version | Text Only | Print | Product List | Glossary On
Versions: 1 2 3 4 5 6 7 8 9 10 11 12 13 14 15 16 17 18 19 20 21 22 23 24 25 26
653
FTUS42 KILM 062320
TAFMYR
TAF
KMYR 062320Z 0700/0724 04008KT P6SM -RA BKN050
     FM070400 02014G22KT 6SM -RA BKN035
     FM070700 01017G28KT 5SM -RA BR BKN020 OVC050
     FM071200 01020G33KT 2SM RA BR BKN007
      TEMPO 0713/0717 3/4SM +RA BR BKN004
     FM071800 35023G35KT 3SM -RA BR BKN007
      AMD LTD TO CLD VIS AND WIND TIL 071100=

USA.gov is the U.S. government's official web portal to all federal, state and local government web resources and services.